Upstream stations:
Downstream station:
SHEF ID: SNCO2 North Canadian River at Shawnee,
STATION TYPE:
STAGE RIV-FLOW BAT-LOAD
ft cfs volt
Ccp-Rev Ccp-Rev Ccp-Rev
(US/Central)
09/28 00:00 9.25 164 12.65
09/28 01:00 9.25 164 12.65
09/28 02:00 9.24 161 12.65
09/28 03:00 9.25 164 12.65
09/28 04:00 9.25 164 12.65
09/28 05:00 9.26 166 12.60
09/28 06:00 9.28 171 12.60
09/28 07:00 9.31 179 12.60
09/28 08:00 9.34 187 12.60
09/28 09:00 9.37 195 13.24
09/28 10:00 9.40 204 13.36
09/28 11:00 9.41 206 13.36
09/28 12:00 9.43 212 13.36
09/28 13:00 9.44 215 13.30
09/28 14:00 9.46 221 13.30
09/28 15:00 9.45 218 13.30
09/28 16:00 9.41 206 13.24
09/28 17:00 9.40 204 13.30
09/28 18:00 9.39 201 13.07
09/28 19:00 9.39 201 12.83
09/28 20:00 9.39 201 12.77
09/28 21:00 9.39 201 12.71
09/28 22:00 9.37 195 12.71
09/28 23:00 ---- ---- ----